An Xiu Shan — BRQV — position and weather

sailwx.info

Track history (hours):
 
Tides and Currents Weather Stations Pressure Air Temp Water Temp Dewpoint Dewpoint Depression Visibility Wind Speed Wind Dir Waves Ship Positions

An Xiu Shan

Last reported at 2015-May-25 10:31 UTC. Time now 2015-May-25 11:30 UTC.
Position N 30°15' E 123°04'.

Length 199 m; draft 12.7 m.

Type: Cargo ship. MMSI: 413195000.

Date/timePositionNaut miles runAvg speedWind from/ knotsBaromVisibWave heightAir tempDewpointWater temp
2015-May-25 10:31N 30°15' E 123°04'10 9.9
2015-May-25 09:32N 30°25' E 123°05'10 9.7
2015-May-25 08:32N 30°34' E 123°03'10 9.5
2015-May-25 07:29N 30°44' E 123°01'8 8.6
2015-May-25 06:33N 30°52' E 123°01'38 9.5
2015-May-25 02:31N 31°30' E 122°54'75 9.4
2015-May-24 18:32N 32°45' E 122°53'18110.6
2015-May-24 01:28N 35°46' E 122°53'910.1
2015-May-24 00:33N 35°55' E 122°54'10 9.9
2015-May-23 23:31N 36°05' E 122°53'11 9.9
2015-May-23 22:27N 36°16' E 122°54'1910.0
2015-May-23 20:32N 36°35' E 122°54'1010.7
2015-May-23 19:33N 36°45' E 122°51'1010.0
2015-May-23 18:33N 36°55' E 122°48'1110.8
2015-May-23 17:33N 37°06' E 122°48'1010.2
2015-May-23 16:33N 37°16' E 122°48'9 9.1
2015-May-23 15:33N 37°25' E 122°47'9 8.7
2015-May-23 14:33N 37°32' E 122°41'9 8.6
2015-May-23 13:33N 37°39' E 122°34'8 8.4
2015-May-23 12:33N 37°45' E 122°26'9 9.1
2015-May-23 11:33N 37°50' E 122°17'12 9.6
2015-May-23 10:17N 37°56' E 122°04'36 9.2
2015-May-23 06:22N 38°17' E 121°26'115 9.8
2015-May-22 18:33N 39°44' E 119°48'1110.6
2015-May-22 17:33N 39°53' E 119°42'3 2.3
2015-May-22 16:23N 39°55' E 119°40'0 0.0
2015-May-22 15:29N 39°55' E 119°40'0 0.0
2015-May-22 14:29N 39°55' E 119°40'0 0.0
2015-May-22 13:29N 39°55' E 119°40'0 0.0
2015-May-22 12:29N 39°55' E 119°40'0 0.0
2015-May-22 11:29N 39°55' E 119°40'0 0.0
2015-May-22 10:29N 39°55' E 119°40'0 0.0
2015-May-22 09:29N 39°55' E 119°40'0 0.0
2015-May-22 08:17N 39°55' E 119°40'0 0.0
2015-May-22 07:29N 39°55' E 119°40'0 0.0
2015-May-22 06:29N 39°55' E 119°40'0 0.0
2015-May-22 05:29N 39°55' E 119°40'0 0.0
2015-May-22 04:29N 39°55' E 119°40'0 0.0
2015-May-22 03:29N 39°55' E 119°40'0 0.0
2015-May-22 02:29N 39°55' E 119°40'0 0.0
2015-May-22 01:29N 39°55' E 119°40'0 0.0
2015-May-22 00:29N 39°55' E 119°40'0 0.0
2015-May-21 23:29N 39°55' E 119°40'3 3.3
2015-May-21 22:33N 39°52' E 119°41'4 4.4
2015-May-21 21:33N 39°49' E 119°43'5 4.7
2015-May-21 20:33N 39°48' E 119°49'2 1.7
2015-May-21 19:29N 39°49' E 119°51'0 0.0
2015-May-21 18:23N 39°49' E 119°51'0 0.0
2015-May-21 17:29N 39°49' E 119°51'0 0.0
2015-May-21 16:29N 39°49' E 119°51'0 0.0
2015-May-21 15:29N 39°49' E 119°51'0 0.0
2015-May-21 14:23N 39°49' E 119°51'0 0.0
2015-May-21 13:17N 39°49' E 119°51'0 0.1
2015-May-21 12:29N 39°49' E 119°51'0 0.0
2015-May-21 11:29N 39°49' E 119°51'0 0.0
2015-May-21 10:29N 39°49' E 119°51'0 0.0
2015-May-21 09:29N 39°49' E 119°51'0 0.0
2015-May-21 08:33N 39°49' E 119°51'0 0.0
2015-May-21 07:33N 39°49' E 119°51'0 0.0
2015-May-21 06:26N 39°49' E 119°50'0 0.0
2015-May-21 05:32N 39°49' E 119°50'0 0.0
2015-May-21 04:32N 39°49' E 119°50'0 0.0
2015-May-21 03:20N 39°49' E 119°51'0 0.1
2015-May-21 02:32N 39°49' E 119°51'0 0.0
2015-May-21 01:32N 39°49' E 119°51'0 0.0
2015-May-21 00:26N 39°49' E 119°51'0 0.0
2015-May-20 23:32N 39°49' E 119°51'0 0.0
2015-May-20 22:32N 39°49' E 119°51'0 0.0
2015-May-20 21:32N 39°49' E 119°51'0 0.0
2015-May-20 20:32N 39°49' E 119°51'0 0.0
2015-May-20 19:14N 39°49' E 119°51'0 0.0
2015-May-20 18:32N 39°49' E 119°51'0 0.0
2015-May-20 17:32N 39°49' E 119°51'0 0.0
2015-May-20 16:32N 39°49' E 119°51'0 0.0
2015-May-20 15:32N 39°49' E 119°51'0 0.0
2015-May-20 14:26N 39°49' E 119°51'0 0.0
2015-May-20 13:32N 39°49' E 119°51'0 0.0
2015-May-20 12:26N 39°49' E 119°51'0 0.0
2015-May-20 11:26N 39°49' E 119°51'0 0.1
2015-May-20 10:32N 39°49' E 119°50'0 0.0
2015-May-20 09:32N 39°49' E 119°50'0 0.0
2015-May-20 08:32N 39°49' E 119°50'0 0.0
2015-May-20 07:32N 39°49' E 119°50'0 0.0
2015-May-20 06:32N 39°49' E 119°50'0 0.0
2015-May-20 05:32N 39°49' E 119°50'0 0.0
2015-May-20 03:32N 39°49' E 119°50'0 0.1
2015-May-20 02:32N 39°49' E 119°50'0 0.0
2015-May-20 01:32N 39°49' E 119°50'0 0.1
2015-May-20 00:26N 39°49' E 119°50'0 0.1
2015-May-19 23:26N 39°49' E 119°50'0 0.1
2015-May-19 22:32N 39°49' E 119°51'0 0.0
2015-May-19 21:32N 39°49' E 119°51'0 0.0
2015-May-19 20:32N 39°49' E 119°51'0 0.0
2015-May-19 19:32N 39°49' E 119°51'0 0.0
2015-May-19 18:32N 39°49' E 119°51'0 0.0
2015-May-19 17:26N 39°49' E 119°51'0 0.1
2015-May-19 16:26N 39°49' E 119°50'0 0.1
2015-May-19 15:32N 39°49' E 119°50'0 0.0
2015-May-19 14:32N 39°49' E 119°50'0 0.0
2015-May-19 13:32N 39°49' E 119°50'0 0.0
2015-May-19 12:32N 39°49' E 119°50'0 0.0
2015-May-19 11:32N 39°49' E 119°50'0 0.1
2015-May-19 10:26N 39°49' E 119°50'0 0.0
2015-May-19 09:32N 39°49' E 119°50'0 0.1
2015-May-19 08:32N 39°49' E 119°50'0 0.1
2015-May-19 07:32N 39°49' E 119°51'0 0.0
2015-May-19 06:32N 39°49' E 119°51'0 0.0
2015-May-19 05:32N 39°49' E 119°51'0 0.0
2015-May-19 04:32N 39°49' E 119°51'0 0.0
2015-May-19 03:32N 39°49' E 119°51'0 0.0
2015-May-19 02:32N 39°49' E 119°51'0 0.1
2015-May-19 01:32N 39°49' E 119°50'0 0.1
2015-May-19 00:32N 39°49' E 119°51'0 0.0
2015-May-18 22:32N 39°49' E 119°51'0 0.1
2015-May-18 21:32N 39°49' E 119°50'0 0.0
2015-May-18 20:32N 39°49' E 119°50'0 0.1
2015-May-18 19:32N 39°49' E 119°51'0 0.0
2015-May-18 18:32N 39°49' E 119°50'0 0.0
2015-May-18 17:32N 39°49' E 119°50'0 0.1
2015-May-18 16:20N 39°49' E 119°50'0 0.2
2015-May-18 15:26N 39°49' E 119°50'3 3.0
2015-May-18 14:33N 39°46' E 119°51'11 9.8
2015-May-18 13:25N 39°37' E 119°58'2010.6
2015-May-18 11:32N 39°21' E 120°14'3210.4
2015-May-18 08:27N 38°56' E 120°39'9912.4
2015-May-18 00:26N 37°53' E 122°18'1112.0
2015-May-17 23:31N 37°47' E 122°30'1212.2
2015-May-17 22:33N 37°41' E 122°42'1413.7
2015-May-17 21:33N 37°28' E 122°50'1413.7
2015-May-17 20:33N 37°15' E 122°53'1413.4
2015-May-17 19:32N 37°01' E 122°54'1212.4
2015-May-17 18:32N 36°49' E 122°54'1211.9
2015-May-17 17:33N 36°37' E 122°55'1111.2
2015-May-17 16:32N 36°26' E 122°54'1211.9
2015-May-17 15:33N 36°14' E 122°54'1212.0
2015-May-17 14:33N 36°02' E 122°54'1211.8
2015-May-17 13:33N 35°50' E 122°54'1111.5
2015-May-17 12:34N 35°39' E 122°54'1111.4
2015-May-17 11:33N 35°28' E 122°54'1211.5
2015-May-17 10:33N 35°16' E 122°54'2511.5
2015-May-17 08:24N 34°51' E 122°54'1011.9
2015-May-17 07:34N 34°41' E 122°55'2712.6
2015-May-17 05:23N 34°14' E 122°54'7212.3
2015-May-16 23:32N 33°02' E 122°54'1110.7
2015-May-16 22:33N 32°51' E 122°54'1110.7
2015-May-16 21:33N 32°41' E 122°55'1111.1
2015-May-16 20:33N 32°30' E 122°55'1111.4
2015-May-16 19:33N 32°18' E 122°55'1111.4
2015-May-16 18:33N 32°07' E 122°55'1211.7
2015-May-16 17:34N 31°55' E 122°55'1211.8
2015-May-16 16:33N 31°43' E 122°55'1312.8
2015-May-16 15:33N 31°30' E 122°54'1312.9
2015-May-16 14:33N 31°18' E 122°54'1312.7
2015-May-16 13:34N 31°05' E 122°56'1312.9
2015-May-16 12:33N 30°53' E 123°00'1312.8
2015-May-16 11:33N 30°40' E 123°02'1212.4
2015-May-16 10:33N 30°28' E 123°05'1410.9
2015-May-16 09:19N 30°14' E 123°03'910.7
2015-May-16 08:31N 30°06' E 122°60'1010.4
2015-May-16 07:30N 29°56' E 122°55'1110.3
2015-May-16 06:29N 29°46' E 122°52'1010.1
2015-May-16 05:31N 29°37' E 122°48'10 9.9
2015-May-16 04:32N 29°28' E 122°45'2010.0
2015-May-16 02:33N 29°09' E 122°37'  
Track history (hours):
 
Tides and Currents Weather Stations Pressure Air Temp Water Temp Dewpoint Dewpoint Depression Visibility Wind Speed Wind Dir Waves Ship Positions

An Xiu Shan

Last reported at 2015-May-25 10:31 UTC. Time now 2015-May-25 11:30 UTC.
Position N 30°15' E 123°04'.

Length 199 m; draft 12.7 m.

Type: Cargo ship. MMSI: 413195000.

Date/timePositionNaut miles runAvg speedWind from/ knotsBaromVisibWave heightAir tempDewpointWater temp
2015-May-25 10:31N 30°15' E 123°04'10 9.9
2015-May-25 09:32N 30°25' E 123°05'10 9.7
2015-May-25 08:32N 30°34' E 123°03'10 9.5
2015-May-25 07:29N 30°44' E 123°01'8 8.6
2015-May-25 06:33N 30°52' E 123°01'38 9.5
2015-May-25 02:31N 31°30' E 122°54'75 9.4
2015-May-24 18:32N 32°45' E 122°53'18110.6
2015-May-24 01:28N 35°46' E 122°53'910.1
2015-May-24 00:33N 35°55' E 122°54'10 9.9
2015-May-23 23:31N 36°05' E 122°53'11 9.9
2015-May-23 22:27N 36°16' E 122°54'1910.0
2015-May-23 20:32N 36°35' E 122°54'1010.7
2015-May-23 19:33N 36°45' E 122°51'1010.0
2015-May-23 18:33N 36°55' E 122°48'1110.8
2015-May-23 17:33N 37°06' E 122°48'1010.2
2015-May-23 16:33N 37°16' E 122°48'9 9.1
2015-May-23 15:33N 37°25' E 122°47'9 8.7
2015-May-23 14:33N 37°32' E 122°41'9 8.6
2015-May-23 13:33N 37°39' E 122°34'8 8.4
2015-May-23 12:33N 37°45' E 122°26'9 9.1
2015-May-23 11:33N 37°50' E 122°17'12 9.6
2015-May-23 10:17N 37°56' E 122°04'36 9.2
2015-May-23 06:22N 38°17' E 121°26'115 9.8
2015-May-22 18:33N 39°44' E 119°48'1110.6
2015-May-22 17:33N 39°53' E 119°42'3 2.3
2015-May-22 16:23N 39°55' E 119°40'0 0.0
2015-May-22 15:29N 39°55' E 119°40'0 0.0
2015-May-22 14:29N 39°55' E 119°40'0 0.0
2015-May-22 13:29N 39°55' E 119°40'0 0.0
2015-May-22 12:29N 39°55' E 119°40'0 0.0
2015-May-22 11:29N 39°55' E 119°40'0 0.0
2015-May-22 10:29N 39°55' E 119°40'0 0.0
2015-May-22 09:29N 39°55' E 119°40'0 0.0
2015-May-22 08:17N 39°55' E 119°40'0 0.0
2015-May-22 07:29N 39°55' E 119°40'0 0.0
2015-May-22 06:29N 39°55' E 119°40'0 0.0
2015-May-22 05:29N 39°55' E 119°40'0 0.0
2015-May-22 04:29N 39°55' E 119°40'0 0.0
2015-May-22 03:29N 39°55' E 119°40'0 0.0
2015-May-22 02:29N 39°55' E 119°40'0 0.0
2015-May-22 01:29N 39°55' E 119°40'0 0.0
2015-May-22 00:29N 39°55' E 119°40'0 0.0
2015-May-21 23:29N 39°55' E 119°40'3 3.3
2015-May-21 22:33N 39°52' E 119°41'4 4.4
2015-May-21 21:33N 39°49' E 119°43'5 4.7
2015-May-21 20:33N 39°48' E 119°49'2 1.7
2015-May-21 19:29N 39°49' E 119°51'0 0.0
2015-May-21 18:23N 39°49' E 119°51'0 0.0
2015-May-21 17:29N 39°49' E 119°51'0 0.0
2015-May-21 16:29N 39°49' E 119°51'0 0.0
2015-May-21 15:29N 39°49' E 119°51'0 0.0
2015-May-21 14:23N 39°49' E 119°51'0 0.0
2015-May-21 13:17N 39°49' E 119°51'0 0.1
2015-May-21 12:29N 39°49' E 119°51'0 0.0
2015-May-21 11:29N 39°49' E 119°51'0 0.0
2015-May-21 10:29N 39°49' E 119°51'0 0.0
2015-May-21 09:29N 39°49' E 119°51'0 0.0
2015-May-21 08:33N 39°49' E 119°51'0 0.0
2015-May-21 07:33N 39°49' E 119°51'0 0.0
2015-May-21 06:26N 39°49' E 119°50'0 0.0
2015-May-21 05:32N 39°49' E 119°50'0 0.0
2015-May-21 04:32N 39°49' E 119°50'0 0.0
2015-May-21 03:20N 39°49' E 119°51'0 0.1
2015-May-21 02:32N 39°49' E 119°51'0 0.0
2015-May-21 01:32N 39°49' E 119°51'0 0.0
2015-May-21 00:26N 39°49' E 119°51'0 0.0
2015-May-20 23:32N 39°49' E 119°51'0 0.0
2015-May-20 22:32N 39°49' E 119°51'0 0.0
2015-May-20 21:32N 39°49' E 119°51'0 0.0
2015-May-20 20:32N 39°49' E 119°51'0 0.0
2015-May-20 19:14N 39°49' E 119°51'0 0.0
2015-May-20 18:32N 39°49' E 119°51'0 0.0
2015-May-20 17:32N 39°49' E 119°51'0 0.0
2015-May-20 16:32N 39°49' E 119°51'0 0.0
2015-May-20 15:32N 39°49' E 119°51'0 0.0
2015-May-20 14:26N 39°49' E 119°51'0 0.0
2015-May-20 13:32N 39°49' E 119°51'0 0.0
2015-May-20 12:26N 39°49' E 119°51'0 0.0
2015-May-20 11:26N 39°49' E 119°51'0 0.1
2015-May-20 10:32N 39°49' E 119°50'0 0.0
2015-May-20 09:32N 39°49' E 119°50'0 0.0
2015-May-20 08:32N 39°49' E 119°50'0 0.0
2015-May-20 07:32N 39°49' E 119°50'0 0.0
2015-May-20 06:32N 39°49' E 119°50'0 0.0
2015-May-20 05:32N 39°49' E 119°50'0 0.0
2015-May-20 03:32N 39°49' E 119°50'0 0.1
2015-May-20 02:32N 39°49' E 119°50'0 0.0
2015-May-20 01:32N 39°49' E 119°50'0 0.1
2015-May-20 00:26N 39°49' E 119°50'0 0.1
2015-May-19 23:26N 39°49' E 119°50'0 0.1
2015-May-19 22:32N 39°49' E 119°51'0 0.0
2015-May-19 21:32N 39°49' E 119°51'0 0.0
2015-May-19 20:32N 39°49' E 119°51'0 0.0
2015-May-19 19:32N 39°49' E 119°51'0 0.0
2015-May-19 18:32N 39°49' E 119°51'0 0.0
2015-May-19 17:26N 39°49' E 119°51'0 0.1
2015-May-19 16:26N 39°49' E 119°50'0 0.1
2015-May-19 15:32N 39°49' E 119°50'0 0.0
2015-May-19 14:32N 39°49' E 119°50'0 0.0
2015-May-19 13:32N 39°49' E 119°50'0 0.0
2015-May-19 12:32N 39°49' E 119°50'0 0.0
2015-May-19 11:32N 39°49' E 119°50'0 0.1
2015-May-19 10:26N 39°49' E 119°50'0 0.0
2015-May-19 09:32N 39°49' E 119°50'0 0.1
2015-May-19 08:32N 39°49' E 119°50'0 0.1
2015-May-19 07:32N 39°49' E 119°51'0 0.0
2015-May-19 06:32N 39°49' E 119°51'0 0.0
2015-May-19 05:32N 39°49' E 119°51'0 0.0
2015-May-19 04:32N 39°49' E 119°51'0 0.0
2015-May-19 03:32N 39°49' E 119°51'0 0.0
2015-May-19 02:32N 39°49' E 119°51'0 0.1
2015-May-19 01:32N 39°49' E 119°50'0 0.1
2015-May-19 00:32N 39°49' E 119°51'0 0.0
2015-May-18 22:32N 39°49' E 119°51'0 0.1
2015-May-18 21:32N 39°49' E 119°50'0 0.0
2015-May-18 20:32N 39°49' E 119°50'0 0.1
2015-May-18 19:32N 39°49' E 119°51'0 0.0
2015-May-18 18:32N 39°49' E 119°50'0 0.0
2015-May-18 17:32N 39°49' E 119°50'0 0.1
2015-May-18 16:20N 39°49' E 119°50'0 0.2
2015-May-18 15:26N 39°49' E 119°50'3 3.0
2015-May-18 14:33N 39°46' E 119°51'11 9.8
2015-May-18 13:25N 39°37' E 119°58'2010.6
2015-May-18 11:32N 39°21' E 120°14'3210.4
2015-May-18 08:27N 38°56' E 120°39'9912.4
2015-May-18 00:26N 37°53' E 122°18'1112.0
2015-May-17 23:31N 37°47' E 122°30'1212.2
2015-May-17 22:33N 37°41' E 122°42'1413.7
2015-May-17 21:33N 37°28' E 122°50'1413.7
2015-May-17 20:33N 37°15' E 122°53'1413.4
2015-May-17 19:32N 37°01' E 122°54'1212.4
2015-May-17 18:32N 36°49' E 122°54'1211.9
2015-May-17 17:33N 36°37' E 122°55'1111.2
2015-May-17 16:32N 36°26' E 122°54'1211.9
2015-May-17 15:33N 36°14' E 122°54'1212.0
2015-May-17 14:33N 36°02' E 122°54'1211.8
2015-May-17 13:33N 35°50' E 122°54'1111.5
2015-May-17 12:34N 35°39' E 122°54'1111.4
2015-May-17 11:33N 35°28' E 122°54'1211.5
2015-May-17 10:33N 35°16' E 122°54'2511.5
2015-May-17 08:24N 34°51' E 122°54'1011.9
2015-May-17 07:34N 34°41' E 122°55'2712.6
2015-May-17 05:23N 34°14' E 122°54'7212.3
2015-May-16 23:32N 33°02' E 122°54'1110.7
2015-May-16 22:33N 32°51' E 122°54'1110.7
2015-May-16 21:33N 32°41' E 122°55'1111.1
2015-May-16 20:33N 32°30' E 122°55'1111.4
2015-May-16 19:33N 32°18' E 122°55'1111.4
2015-May-16 18:33N 32°07' E 122°55'1211.7
2015-May-16 17:34N 31°55' E 122°55'1211.8
2015-May-16 16:33N 31°43' E 122°55'1312.8
2015-May-16 15:33N 31°30' E 122°54'1312.9
2015-May-16 14:33N 31°18' E 122°54'1312.7
2015-May-16 13:34N 31°05' E 122°56'1312.9
2015-May-16 12:33N 30°53' E 123°00'1312.8
2015-May-16 11:33N 30°40' E 123°02'1212.4
2015-May-16 10:33N 30°28' E 123°05'1410.9
2015-May-16 09:19N 30°14' E 123°03'910.7
2015-May-16 08:31N 30°06' E 122°60'1010.4
2015-May-16 07:30N 29°56' E 122°55'1110.3
2015-May-16 06:29N 29°46' E 122°52'1010.1
2015-May-16 05:31N 29°37' E 122°48'10 9.9
2015-May-16 04:32N 29°28' E 122°45'2010.0
2015-May-16 02:33N 29°09' E 122°37'  

Dump ship's entire track history